createdAt,value
2022-12-15T00:01:54.671Z,24.58
2022-12-15T00:04:59.234Z,27.58
2022-12-15T00:08:02.956Z,26.02
2022-12-15T00:11:06.912Z,25.70
2022-12-15T00:14:10.737Z,24.77
2022-12-15T00:17:14.840Z,25.05
2022-12-15T00:20:18.968Z,24.83
2022-12-15T00:23:28.669Z,24.02
2022-12-15T00:26:32.894Z,23.92
2022-12-15T00:29:37.007Z,24.88
2022-12-15T00:32:42.073Z,29.38
2022-12-15T00:35:46.160Z,27.02
2022-12-15T00:38:41.639Z,25.83
2022-12-15T00:41:27.298Z,26.65
2022-12-15T00:44:17.277Z,23.95
2022-12-15T00:47:06.038Z,24.13
2022-12-15T00:50:10.586Z,25.08
2022-12-15T00:53:14.565Z,22.70
2022-12-15T00:56:18.461Z,22.63
2022-12-15T00:59:23.012Z,22.95
2022-12-15T01:02:27.305Z,23.48
2022-12-15T01:05:31.341Z,23.17
2022-12-15T01:08:35.323Z,22.45
2022-12-15T01:11:39.151Z,25.58
2022-12-15T01:14:42.996Z,23.08
2022-12-15T01:17:47.140Z,22.67
2022-12-15T01:20:34.744Z,22.75
2022-12-15T01:23:20.441Z,25.00
2022-12-15T01:26:07.131Z,24.60
2022-12-15T01:28:52.838Z,23.45
2022-12-15T01:31:38.146Z,24.23
2022-12-15T01:34:23.866Z,25.40
2022-12-15T01:37:09.687Z,24.15
2022-12-15T01:40:13.391Z,24.00
2022-12-15T01:42:59.025Z,25.83
2022-12-15T01:45:49.886Z,25.65
2022-12-15T01:48:42.529Z,24.08
2022-12-15T01:51:39.818Z,25.35
2022-12-15T01:54:41.997Z,25.35
2022-12-15T01:57:31.407Z,24.42
2022-12-15T02:00:17.444Z,25.27
2022-12-15T02:03:05.919Z,26.60
2022-12-15T02:05:52.758Z,25.52
2022-12-15T02:08:39.043Z,25.30
2022-12-15T02:12:01.264Z,24.52
2022-12-15T02:15:15.555Z,25.90
2022-12-15T02:18:17.202Z,24.98
2022-12-15T02:21:35.241Z,24.27
2022-12-15T02:24:39.940Z,24.88
2022-12-15T02:27:34.859Z,24.75
2022-12-15T02:30:46.480Z,27.00
2022-12-15T02:33:34.665Z,26.88
2022-12-15T02:36:29.743Z,27.13
2022-12-15T02:39:15.597Z,27.20
2022-12-15T02:42:01.099Z,27.05
2022-12-15T02:44:46.846Z,30.02
2022-12-15T02:47:33.139Z,26.83
2022-12-15T02:50:39.991Z,27.88
2022-12-15T02:54:05.341Z,27.88
2022-12-15T02:57:16.259Z,27.03
2022-12-15T03:00:07.583Z,27.40
2022-12-15T03:02:56.263Z,27.27
2022-12-15T03:05:42.508Z,26.58
2022-12-15T03:08:30.217Z,27.50
2022-12-15T03:11:15.765Z,27.85
2022-12-15T03:14:02.126Z,27.40
2022-12-15T03:16:48.336Z,26.77
2022-12-15T03:19:34.287Z,25.88
2022-12-15T03:22:20.158Z,25.17
2022-12-15T03:25:06.595Z,25.90
2022-12-15T03:27:52.404Z,28.40
2022-12-15T03:30:38.303Z,27.23
2022-12-15T03:33:23.910Z,26.38
2022-12-15T03:36:09.984Z,25.48
2022-12-15T03:38:56.725Z,23.55
2022-12-15T03:41:44.958Z,24.73
2022-12-15T03:44:31.424Z,24.17
2022-12-15T03:47:17.479Z,23.63
2022-12-15T03:50:03.503Z,24.52
2022-12-15T03:52:58.611Z,25.58
2022-12-15T03:55:47.454Z,23.98
2022-12-15T03:58:34.461Z,24.08
2022-12-15T04:01:26.593Z,24.17
2022-12-15T04:04:14.197Z,25.52
2022-12-15T04:06:59.763Z,28.13
2022-12-15T04:09:45.357Z,26.58
2022-12-15T04:12:31.258Z,24.85
2022-12-15T04:15:17.107Z,25.60
2022-12-15T04:18:06.833Z,25.88
2022-12-15T04:20:52.661Z,25.13
2022-12-15T04:23:39.446Z,25.02
2022-12-15T04:26:43.478Z,25.40
2022-12-15T04:29:47.395Z,25.42
2022-12-15T04:32:51.331Z,24.95
2022-12-15T04:35:55.585Z,27.20
2022-12-15T04:38:59.661Z,27.75
2022-12-15T04:42:06.972Z,25.87
2022-12-15T04:45:20.544Z,27.35
2022-12-15T04:48:26.719Z,28.05
2022-12-15T04:51:31.118Z,28.15
2022-12-15T04:54:35.627Z,27.33
2022-12-15T04:57:39.582Z,26.90
2022-12-15T05:00:43.380Z,27.23
2022-12-15T05:03:47.363Z,24.67
2022-12-15T05:09:41.003Z,27.10
2022-12-15T05:12:45.175Z,27.10
2022-12-15T05:15:50.592Z,28.42
2022-12-15T05:21:58.857Z,26.90
2022-12-15T05:25:02.868Z,28.45
2022-12-15T05:28:06.812Z,27.75
2022-12-15T05:31:11.051Z,27.52
2022-12-15T05:34:04.463Z,27.52
2022-12-15T05:36:51.519Z,29.25
2022-12-15T05:39:37.599Z,26.95
2022-12-15T05:42:23.040Z,24.83
2022-12-15T05:45:10.431Z,30.73
2022-12-15T05:47:56.732Z,29.77
2022-12-15T05:50:42.592Z,31.63
2022-12-15T05:53:29.615Z,30.98
2022-12-15T05:56:15.949Z,30.67
2022-12-15T05:59:02.146Z,32.50
2022-12-15T06:01:48.235Z,30.85
2022-12-15T06:04:34.398Z,29.27
2022-12-15T06:07:19.789Z,31.65
2022-12-15T06:10:06.004Z,29.23
2022-12-15T06:12:51.885Z,31.30
2022-12-15T06:15:37.712Z,31.08
2022-12-15T06:18:24.218Z,29.55
2022-12-15T06:21:14.902Z,29.05
2022-12-15T06:24:01.144Z,29.60
2022-12-15T06:26:49.638Z,31.15
2022-12-15T06:29:35.968Z,33.08
2022-12-15T06:32:21.985Z,67.00
2022-12-15T06:35:08.469Z,69.30
2022-12-15T06:37:54.504Z,89.95
2022-12-15T06:40:40.818Z,50.60
2022-12-15T06:43:28.108Z,54.65
2022-12-15T06:46:14.170Z,58.30
2022-12-15T06:49:00.089Z,62.97
2022-12-15T06:51:46.122Z,36.90
2022-12-15T06:54:31.909Z,35.35
2022-12-15T06:57:17.821Z,35.80
2022-12-15T07:00:04.724Z,33.05
2022-12-15T07:02:50.696Z,34.60
2022-12-15T07:05:36.667Z,36.35
2022-12-15T07:08:28.713Z,32.10
2022-12-15T07:11:16.530Z,32.00
2022-12-15T07:14:02.765Z,25.08
2022-12-15T07:16:48.725Z,33.13
2022-12-15T07:19:34.621Z,32.65
2022-12-15T07:22:21.026Z,31.88
2022-12-15T07:25:08.837Z,32.60
2022-12-15T07:27:55.013Z,31.60
2022-12-15T07:30:40.844Z,32.17
2022-12-15T07:33:26.916Z,31.95
2022-12-15T07:36:12.510Z,32.58
2022-12-15T07:39:02.709Z,32.72
2022-12-15T07:41:48.736Z,31.30
2022-12-15T07:44:34.543Z,31.20
2022-12-15T07:47:20.167Z,32.53
2022-12-15T07:50:06.456Z,31.80
2022-12-15T07:52:52.879Z,29.95
2022-12-15T07:56:05.506Z,34.33
2022-12-15T07:58:44.743Z,32.45
2022-12-15T08:01:30.483Z,32.95
2022-12-15T08:04:16.026Z,32.25
2022-12-15T08:07:01.816Z,33.78
2022-12-15T08:09:48.410Z,31.92
2022-12-15T08:12:33.791Z,31.38
2022-12-15T08:15:19.423Z,30.55
2022-12-15T08:18:05.683Z,29.67
2022-12-15T08:20:51.777Z,32.50
2022-12-15T08:23:39.148Z,34.70
2022-12-15T08:26:30.016Z,29.23
2022-12-15T08:38:13.892Z,28.88
2022-12-15T08:41:10.899Z,29.50
2022-12-15T08:43:58.830Z,30.02
2022-12-15T08:46:44.650Z,28.20
2022-12-15T08:49:30.389Z,28.45
2022-12-15T08:52:16.072Z,32.80
2022-12-15T08:55:01.447Z,31.55
2022-12-15T08:57:47.051Z,30.17
2022-12-15T09:00:32.435Z,30.67
2022-12-15T09:03:17.897Z,30.20
2022-12-15T09:06:05.508Z,30.55
2022-12-15T09:08:53.487Z,30.30
2022-12-15T09:11:40.418Z,28.63
2022-12-15T09:14:29.579Z,29.77
2022-12-15T09:17:15.999Z,28.58
2022-12-15T09:20:01.869Z,29.02
2022-12-15T09:22:50.531Z,29.90
2022-12-15T09:25:36.748Z,30.25
2022-12-15T09:28:22.630Z,30.42
2022-12-15T09:31:15.764Z,28.02
2022-12-15T09:34:02.288Z,32.00
2022-12-15T09:36:47.796Z,27.38
2022-12-15T09:39:34.068Z,32.20
2022-12-15T09:42:28.555Z,33.30
2022-12-15T09:45:24.363Z,33.10
2022-12-15T09:48:17.102Z,32.58
2022-12-15T09:51:05.231Z,30.05
2022-12-15T09:53:56.243Z,32.05
2022-12-15T09:56:50.346Z,32.28
2022-12-15T09:59:52.027Z,30.85
2022-12-15T10:03:11.113Z,31.80
2022-12-15T10:06:18.950Z,33.15
2022-12-15T10:09:23.052Z,30.67
2022-12-15T10:12:22.968Z,31.17
2022-12-15T10:15:18.924Z,31.92
2022-12-15T10:18:24.639Z,34.40
2022-12-15T10:21:15.306Z,33.25
2022-12-15T10:24:59.873Z,35.35
2022-12-15T10:27:55.857Z,41.83
2022-12-15T10:30:56.933Z,94.85
2022-12-15T10:36:53.328Z,86.05
2022-12-15T10:39:43.543Z,58.08
2022-12-15T10:42:30.056Z,57.80
2022-12-15T10:45:35.920Z,47.00
2022-12-15T10:48:21.745Z,39.05
2022-12-15T10:51:33.209Z,39.22
2022-12-15T10:54:19.174Z,38.90
2022-12-15T10:57:23.991Z,33.47
2022-12-15T11:00:15.332Z,33.47
2022-12-15T11:03:01.489Z,32.58
2022-12-15T11:05:57.584Z,30.50
2022-12-15T11:08:44.347Z,31.95
2022-12-15T11:11:54.525Z,32.30
2022-12-15T11:14:51.716Z,29.38
2022-12-15T11:17:42.039Z,30.52
2022-12-15T11:20:33.743Z,29.02
2022-12-15T11:23:48.839Z,29.00
2022-12-15T11:26:50.931Z,29.50
2022-12-15T11:29:59.535Z,29.67
2022-12-15T11:32:49.561Z,30.55
2022-12-15T11:36:08.459Z,30.05
2022-12-15T11:38:59.065Z,29.10
2022-12-15T11:42:06.621Z,29.02
2022-12-15T11:45:01.415Z,27.92
2022-12-15T11:48:12.795Z,29.58
2022-12-15T11:51:07.067Z,29.38
2022-12-15T11:54:08.365Z,29.85
2022-12-15T11:57:07.716Z,29.80
2022-12-15T12:00:08.720Z,29.33
2022-12-15T12:03:25.545Z,28.60
2022-12-15T12:06:26.623Z,31.15
2022-12-15T12:09:34.006Z,31.20
2022-12-15T12:12:42.614Z,30.17
2022-12-15T12:16:10.664Z,29.27
2022-12-15T12:19:02.961Z,30.63
2022-12-15T12:21:58.903Z,29.88
2022-12-15T12:24:50.833Z,30.58
2022-12-15T12:27:48.743Z,30.33
2022-12-15T12:30:44.667Z,30.80
2022-12-15T12:33:41.446Z,26.98
2022-12-15T12:36:27.415Z,29.70
2022-12-15T12:39:20.539Z,29.98
2022-12-15T12:42:28.723Z,28.75
2022-12-15T12:45:15.249Z,29.08
2022-12-15T12:48:07.337Z,29.25
2022-12-15T12:51:10.710Z,28.17
2022-12-15T12:53:57.990Z,25.95
2022-12-15T12:56:50.473Z,26.23
2022-12-15T12:59:39.823Z,26.30
2022-12-15T13:02:25.809Z,25.92
2022-12-15T13:05:31.734Z,27.58
2022-12-15T13:08:25.848Z,26.48
2022-12-15T13:14:55.799Z,26.42
2022-12-15T13:17:49.267Z,28.70
2022-12-15T13:20:37.829Z,29.40
2022-12-15T13:23:23.555Z,28.90
2022-12-15T13:26:09.344Z,28.75
2022-12-15T13:28:57.073Z,28.15
2022-12-15T13:31:51.228Z,27.85
2022-12-15T13:34:40.767Z,27.57
2022-12-15T13:37:48.983Z,28.13
2022-12-15T13:40:35.501Z,26.20
2022-12-15T13:43:27.348Z,26.65
2022-12-15T13:46:18.732Z,25.85
2022-12-15T13:49:13.922Z,27.15
2022-12-15T13:52:06.497Z,22.95
2022-12-15T13:54:56.355Z,25.00
2022-12-15T13:57:54.479Z,26.02
2022-12-15T14:00:47.326Z,25.42
2022-12-15T14:03:35.168Z,25.75
2022-12-15T14:06:22.447Z,26.00
2022-12-15T14:09:14.634Z,24.80
2022-12-15T14:12:02.767Z,27.55
2022-12-15T14:14:49.830Z,25.67
2022-12-15T14:17:36.866Z,25.20
2022-12-15T14:20:27.512Z,26.38
2022-12-15T14:23:27.386Z,25.83
2022-12-15T14:26:15.278Z,25.92
2022-12-15T14:29:04.142Z,25.95
2022-12-15T14:31:58.494Z,23.98
2022-12-15T14:34:45.199Z,24.92
2022-12-15T14:37:36.259Z,26.50
2022-12-15T14:40:28.196Z,25.25
2022-12-15T14:43:23.866Z,24.92
2022-12-15T14:46:15.396Z,27.70
2022-12-15T14:49:17.997Z,25.35
2022-12-15T14:52:05.963Z,25.35
2022-12-15T14:54:57.320Z,26.35
2022-12-15T14:57:48.555Z,25.85
2022-12-15T15:00:35.607Z,26.70
2022-12-15T15:03:09.974Z,101.75
2022-12-15T15:03:15.406Z,29.60
2022-12-15T15:03:26.368Z,26.10
2022-12-15T15:06:11.897Z,25.25
2022-12-15T15:09:03.137Z,27.27
2022-12-15T15:11:51.106Z,28.20
2022-12-15T15:14:47.753Z,27.50
2022-12-15T15:17:52.661Z,28.45
2022-12-15T15:20:38.213Z,29.67
2022-12-15T15:23:24.218Z,28.45
2022-12-15T15:26:10.949Z,27.92
2022-12-15T15:28:57.411Z,26.30
2022-12-15T15:31:43.338Z,22.90
2022-12-15T15:34:29.506Z,29.50
2022-12-15T15:37:25.968Z,27.38
2022-12-15T15:40:14.094Z,28.48
2022-12-15T15:42:59.981Z,24.23
2022-12-15T15:45:46.441Z,26.38
2022-12-15T15:48:36.736Z,17.17
2022-12-15T15:51:25.037Z,26.65
2022-12-15T15:54:22.398Z,26.33
2022-12-15T15:57:13.760Z,26.85
2022-12-15T16:00:00.018Z,26.25
2022-12-15T16:02:46.461Z,26.88
2022-12-15T16:05:32.410Z,24.25
2022-12-15T16:08:22.738Z,27.73
2022-12-15T16:11:12.265Z,27.45
2022-12-15T16:13:58.016Z,26.10
2022-12-15T16:16:44.042Z,29.73
2022-12-15T16:19:37.918Z,26.50
2022-12-15T16:22:25.282Z,23.77
2022-12-15T16:25:43.750Z,27.45
2022-12-15T16:28:34.132Z,24.52
2022-12-15T16:31:38.922Z,25.50
2022-12-15T16:34:27.577Z,28.40
2022-12-15T16:37:28.998Z,27.45
2022-12-15T16:40:17.953Z,28.02
2022-12-15T16:43:04.051Z,24.17
2022-12-15T16:45:51.267Z,25.25
2022-12-15T16:48:37.371Z,22.38
2022-12-15T16:51:45.380Z,27.48
2022-12-15T16:54:32.454Z,26.92
2022-12-15T16:57:18.963Z,21.45
2022-12-15T17:00:19.251Z,25.15
2022-12-15T17:03:06.269Z,23.92
2022-12-15T17:06:04.606Z,23.98
2022-12-15T17:08:54.538Z,26.00
2022-12-15T17:11:40.460Z,23.25
2022-12-15T17:14:26.332Z,23.92
2022-12-15T17:17:17.275Z,24.55
2022-12-15T17:20:33.335Z,23.58
2022-12-15T17:23:15.548Z,28.42
2022-12-15T17:26:22.802Z,23.92
2022-12-15T17:29:13.347Z,26.77
2022-12-15T17:31:59.027Z,23.63
2022-12-15T17:34:45.318Z,28.33
2022-12-15T17:37:35.271Z,24.58
2022-12-15T17:40:23.769Z,24.02
2022-12-15T17:43:15.008Z,25.95
2022-12-15T17:46:00.566Z,20.20
2022-12-15T17:48:46.051Z,25.38
2022-12-15T17:51:31.621Z,24.08
2022-12-15T17:54:19.468Z,24.23
2022-12-15T17:57:05.720Z,27.48
2022-12-15T17:59:51.490Z,26.55
2022-12-15T18:02:37.214Z,19.88
2022-12-15T18:05:28.225Z,24.90
2022-12-15T18:08:19.222Z,24.98
2022-12-15T18:11:04.972Z,26.65
2022-12-15T18:13:50.752Z,25.58
2022-12-15T18:16:36.375Z,24.67
2022-12-15T18:19:21.898Z,24.35
2022-12-15T18:22:28.149Z,18.98
2022-12-15T18:25:28.679Z,17.20
2022-12-15T18:28:25.081Z,25.00
2022-12-15T18:31:26.403Z,23.42
2022-12-15T18:34:18.071Z,25.95
2022-12-15T18:37:13.811Z,18.42
2022-12-15T18:40:04.211Z,19.17
2022-12-15T18:42:50.598Z,25.20
2022-12-15T18:45:36.154Z,23.73
2022-12-15T18:48:22.624Z,22.20
2022-12-15T18:51:22.422Z,25.42
2022-12-15T18:54:18.587Z,24.52
2022-12-15T18:57:08.886Z,23.25
2022-12-15T18:59:59.756Z,23.48
2022-12-15T19:02:45.328Z,24.08
2022-12-15T19:05:34.126Z,24.45
2022-12-15T19:08:25.951Z,24.67
2022-12-15T19:11:18.446Z,24.60
2022-12-15T19:14:05.064Z,24.92
2022-12-15T19:17:09.309Z,23.33
2022-12-15T19:20:13.103Z,23.10
2022-12-15T19:22:58.819Z,23.30
2022-12-15T19:25:46.387Z,24.15
2022-12-15T19:28:33.301Z,18.90
2022-12-15T19:31:19.127Z,24.13
2022-12-15T19:34:04.876Z,20.08
2022-12-15T19:36:50.818Z,20.77
2022-12-15T19:39:38.644Z,21.70
2022-12-15T19:42:31.554Z,21.75
2022-12-15T19:45:19.191Z,24.38
2022-12-15T19:48:05.179Z,21.08
2022-12-15T19:50:52.230Z,23.08
2022-12-15T19:53:40.509Z,23.77
2022-12-15T19:56:27.077Z,22.63
2022-12-15T19:59:22.411Z,23.42
2022-12-15T20:02:19.803Z,23.30
2022-12-15T20:05:05.817Z,23.85
2022-12-15T20:07:53.791Z,24.35
2022-12-15T20:10:39.465Z,22.83
2022-12-15T20:13:26.530Z,23.42
2022-12-15T20:16:15.724Z,24.60
2022-12-15T20:19:01.629Z,23.77
2022-12-15T20:21:47.294Z,24.40
2022-12-15T20:24:33.414Z,23.20
2022-12-15T20:27:19.792Z,25.33
2022-12-15T20:30:07.145Z,26.17
2022-12-15T20:32:53.565Z,24.88
2022-12-15T20:35:39.895Z,23.85
2022-12-15T20:38:32.736Z,25.38
2022-12-15T20:41:20.521Z,23.95
2022-12-15T20:44:10.245Z,20.75
2022-12-15T20:46:56.025Z,25.02
2022-12-15T20:49:41.557Z,21.58
2022-12-15T20:52:27.377Z,24.40
2022-12-15T20:55:14.689Z,25.63
2022-12-15T20:58:00.148Z,24.48
2022-12-15T21:00:46.370Z,24.90
2022-12-15T21:03:36.621Z,24.95
2022-12-15T21:06:23.774Z,25.80
2022-12-15T21:09:14.182Z,25.52
2022-12-15T21:12:07.360Z,23.38
2022-12-15T21:14:54.850Z,25.33
2022-12-15T21:17:42.110Z,24.88
2022-12-15T21:20:27.999Z,21.48
2022-12-15T21:23:23.529Z,23.75
2022-12-15T21:26:10.617Z,25.15
2022-12-15T21:28:59.469Z,26.60
2022-12-15T21:31:46.295Z,25.80
2022-12-15T21:34:31.812Z,24.13
2022-12-15T21:37:28.331Z,25.88
2022-12-15T21:40:18.029Z,22.48
2022-12-15T21:43:04.605Z,25.05
2022-12-15T21:45:50.350Z,27.02
2022-12-15T21:48:54.498Z,23.67
2022-12-15T21:51:52.083Z,25.42
2022-12-15T21:54:37.667Z,26.15
2022-12-15T21:57:23.220Z,25.05
2022-12-15T22:00:17.489Z,30.45
2022-12-15T22:03:03.174Z,29.83
2022-12-15T22:05:49.073Z,25.10
2022-12-15T22:08:35.185Z,28.27
2022-12-15T22:11:40.641Z,29.65
2022-12-15T22:14:33.500Z,28.80
2022-12-15T22:20:24.990Z,29.08
2022-12-15T22:23:10.490Z,26.90
2022-12-15T22:25:56.761Z,25.77
2022-12-15T22:28:42.392Z,26.98
2022-12-15T22:31:28.921Z,28.15
2022-12-15T22:34:17.243Z,27.70
2022-12-15T22:37:03.136Z,29.27
2022-12-15T22:39:49.743Z,28.30
2022-12-15T22:42:39.807Z,29.25
2022-12-15T22:45:25.305Z,28.67
2022-12-15T22:48:15.538Z,26.83
2022-12-15T22:51:01.597Z,27.10
2022-12-15T22:53:47.050Z,29.10
2022-12-15T22:56:39.511Z,26.17
2022-12-15T22:59:36.438Z,26.58
2022-12-15T23:02:22.206Z,22.33
2022-12-15T23:05:11.095Z,22.27
2022-12-15T23:07:57.003Z,25.77
2022-12-15T23:11:01.255Z,22.40
2022-12-15T23:13:46.889Z,28.58
2022-12-15T23:16:32.793Z,26.80
2022-12-15T23:19:24.232Z,26.25
2022-12-15T23:22:10.336Z,28.75
2022-12-15T23:24:56.030Z,27.13
2022-12-15T23:27:41.812Z,26.58
2022-12-15T23:30:27.507Z,25.27
2022-12-15T23:33:13.014Z,26.73
2022-12-15T23:36:00.339Z,25.67
2022-12-15T23:38:46.541Z,24.60
2022-12-15T23:41:33.246Z,25.52
2022-12-15T23:44:19.029Z,25.65
2022-12-15T23:47:05.552Z,26.05
2022-12-15T23:49:51.389Z,24.98
2022-12-15T23:52:37.893Z,25.70
2022-12-15T23:55:23.610Z,26.05
2022-12-15T23:58:09.221Z,25.80
